Time;durP1;ratioP1;P1;durP2;ratioP2;P2;SDS_P1;SDS_P2;PMS_P1;PMS_P2;Temp;Humidity;BMP_temperature;BMP_pressure;BME280_temperature;BME280_humidity;BME280_pressure;Samples;Min_cycle;Max_cycle;Signal;HPM_P1;HPM_P2
2023/11/18 00:04:04;;;;;;;1.48;1.30;;;;;;;;;;10037779;28;20496;-76
2023/11/18 00:08:55;;;;;;;2.40;1.85;;;;;;;;;;10034212;28;20137;-76
2023/11/18 00:13:48;;;;;;;1.30;1.20;;;;;;;;;;10038973;28;20136;-76
2023/11/18 00:18:40;;;;;;;1.40;1.30;;;;;;;;;;10047564;28;20049;-76
2023/11/18 00:23:32;;;;;;;2.03;1.25;;;;;;;;;;10056900;28;20049;-75
2023/11/18 00:28:24;;;;;;;2.67;1.50;;;;;;;;;;10044342;28;20434;-75
2023/11/18 00:33:16;;;;;;;1.23;1.15;;;;;;;;;;10038762;28;20042;-76
2023/11/18 00:38:08;;;;;;;1.27;1.17;;;;;;;;;;10018398;28;20476;-75
2023/11/18 00:43:00;;;;;;;1.95;1.63;;;;;;;;;;10031667;28;20590;-76
2023/11/18 00:47:52;;;;;;;2.83;1.75;;;;;;;;;;10018095;28;20069;-76
2023/11/18 00:52:44;;;;;;;2.00;1.80;;;;;;;;;;10022407;28;20476;-75
2023/11/18 00:57:39;;;;;;;2.55;1.85;;;;;;;;;;10022191;28;20038;-75
2023/11/18 01:02:30;;;;;;;2.03;1.80;;;;;;;;;;10023945;28;20133;-73
2023/11/18 01:07:22;;;;;;;1.98;1.60;;;;;;;;;;10021955;28;20041;-75
2023/11/18 01:12:14;;;;;;;3.17;1.98;;;;;;;;;;10030164;28;21442;-72
2023/11/18 01:17:06;;;;;;;1.52;1.38;;;;;;;;;;10017885;28;20034;-74
2023/11/18 01:21:58;;;;;;;2.28;2.03;;;;;;;;;;10023651;28;20129;-75
2023/11/18 01:26:50;;;;;;;3.13;1.10;;;;;;;;;;10027369;28;20144;-76
2023/11/18 01:31:42;;;;;;;1.33;1.23;;;;;;;;;;10026568;28;20038;-76
2023/11/18 01:36:43;;;;;;;1.73;1.48;;;;;;;;;;10014100;28;20469;-76
2023/11/18 01:41:37;;;;;;;3.28;1.55;;;;;;;;;;10029630;28;20045;-76
2023/11/18 01:46:29;;;;;;;4.05;2.28;;;;;;;;;;10029400;28;20081;-75
2023/11/18 01:51:23;;;;;;;3.60;1.70;;;;;;;;;;10029466;28;20094;-75
2023/11/18 01:56:16;;;;;;;1.75;1.58;;;;;;;;;;10029217;28;20053;-75
2023/11/18 02:01:09;;;;;;;1.50;1.40;;;;;;;;;;10011972;28;20038;-75
2023/11/18 02:06:04;;;;;;;3.42;1.80;;;;;;;;;;10028614;28;20485;-75
2023/11/18 02:11:06;;;;;;;2.60;2.03;;;;;;;;;;10011765;28;20381;-75
2023/11/18 02:15:58;;;;;;;2.15;1.42;;;;;;;;;;10038329;28;20046;-75
2023/11/18 02:20:52;;;;;;;2.25;1.40;;;;;;;;;;10004620;28;20038;-75
2023/11/18 02:25:45;;;;;;;1.98;1.50;;;;;;;;;;10011362;28;20507;-75
2023/11/18 02:30:37;;;;;;;1.63;1.52;;;;;;;;;;10049655;28;20063;-75
2023/11/18 02:35:37;;;;;;;2.05;1.48;;;;;;;;;;10056040;28;20038;-75
2023/11/18 02:40:30;;;;;;;;;;;;;;;;;;10044902;28;20066;-75
2023/11/18 02:45:22;;;;;;;2.47;1.58;;;;;;;;;;10037613;28;19979;-75
2023/11/18 02:50:15;;;;;;;1.40;1.30;;;;;;;;;;10045251;28;20136;-75
2023/11/18 02:55:08;;;;;;;1.40;1.30;;;;;;;;;;10033117;28;20508;-75
2023/11/18 03:00:00;;;;;;;1.60;1.50;;;;;;;;;;10026734;28;20378;-75
2023/11/18 03:04:52;;;;;;;1.73;1.60;;;;;;;;;;10026503;28;20056;-75
2023/11/18 03:09:46;;;;;;;1.90;1.80;;;;;;;;;;10014554;28;20350;-75
2023/11/18 03:14:38;;;;;;;1.45;1.33;;;;;;;;;;10014471;28;20436;-75
2023/11/18 03:19:30;;;;;;;1.40;1.30;;;;;;;;;;10032887;28;20065;-75
2023/11/18 03:24:22;;;;;;;2.97;1.10;;;;;;;;;;10039861;28;20049;-76
2023/11/18 03:29:14;;;;;;;3.03;0.93;;;;;;;;;;10030438;28;20095;-75
2023/11/18 03:34:06;;;;;;;0.73;0.70;;;;;;;;;;10025229;28;20038;-75
2023/11/18 03:38:58;;;;;;;1.20;1.10;;;;;;;;;;10023046;28;20531;-75
2023/11/18 03:43:49;;;;;;;1.20;0.90;;;;;;;;;;10025288;28;20049;-76
2023/11/18 03:48:44;;;;;;;1.02;0.80;;;;;;;;;;10024730;28;20121;-76
2023/11/18 03:53:36;;;;;;;1.33;1.23;;;;;;;;;;10026319;28;20046;-77
2023/11/18 03:58:28;;;;;;;1.10;1.00;;;;;;;;;;10014722;28;20489;-76
2023/11/18 04:03:20;;;;;;;1.30;1.17;;;;;;;;;;10025827;28;20042;-75
2023/11/18 04:08:12;;;;;;;1.55;1.45;;;;;;;;;;10010175;28;20141;-76
2023/11/18 04:13:04;;;;;;;1.42;1.23;;;;;;;;;;10025403;28;20069;-75
2023/11/18 04:17:57;;;;;;;1.58;1.48;;;;;;;;;;10025227;28;20046;-75
2023/11/18 04:22:49;;;;;;;1.77;1.40;;;;;;;;;;10024904;28;20566;-75
2023/11/18 04:27:41;;;;;;;1.50;1.40;;;;;;;;;;10025436;28;20057;-76
2023/11/18 04:32:37;;;;;;;2.95;1.45;;;;;;;;;;10019498;28;20045;-75
2023/11/18 04:37:29;;;;;;;2.92;2.22;;;;;;;;;;10024304;28;20107;-75
2023/11/18 04:42:21;;;;;;;3.35;2.65;;;;;;;;;;10009815;28;20124;-75
2023/11/18 04:47:13;;;;;;;1.60;1.50;;;;;;;;;;10023613;28;20372;-76
2023/11/18 04:52:06;;;;;;;1.02;1.02;;;;;;;;;;10024575;28;20543;-76
2023/11/18 04:56:58;;;;;;;1.70;1.60;;;;;;;;;;10025098;28;20042;-75
2023/11/18 05:01:52;;;;;;;2.33;2.13;;;;;;;;;;10021887;28;20104;-76
2023/11/18 05:06:45;;;;;;;2.58;1.40;;;;;;;;;;10025430;28;20057;-75
2023/11/18 05:11:36;;;;;;;3.80;1.55;;;;;;;;;;10019967;28;20077;-76
2023/11/18 05:16:29;;;;;;;1.10;1.10;;;;;;;;;;10025552;28;20045;-76
2023/11/18 05:21:21;;;;;;;1.40;1.30;;;;;;;;;;10024212;28;20038;-76
2023/11/18 05:26:14;;;;;;;1.80;1.65;;;;;;;;;;10021587;28;20524;-76
2023/11/18 05:31:06;;;;;;;1.75;1.40;;;;;;;;;;10021686;28;20473;-76
2023/11/18 05:35:58;;;;;;;1.30;1.20;;;;;;;;;;10020906;28;20117;-75
2023/11/18 05:40:56;;;;;;;1.50;1.10;;;;;;;;;;10023236;28;20104;-76
2023/11/18 05:50:59;;;;;;;1.83;1.70;;;;;;;;;;10021584;28;20050;-76
2023/11/18 05:55:51;;;;;;;1.40;1.27;;;;;;;;;;10025798;28;20054;-76
2023/11/18 06:00:42;;;;;;;3.38;1.55;;;;;;;;;;10028268;28;20045;-76
2023/11/18 06:05:34;;;;;;;2.55;1.60;;;;;;;;;;10030161;28;20456;-75
2023/11/18 06:10:28;;;;;;;1.77;1.40;;;;;;;;;;10031220;28;20121;-75
2023/11/18 06:15:22;;;;;;;1.30;1.30;;;;;;;;;;10030414;28;20045;-75
2023/11/18 06:20:14;;;;;;;2.10;1.50;;;;;;;;;;10028270;28;20034;-76
2023/11/18 06:25:08;;;;;;;1.30;1.20;;;;;;;;;;10030035;28;20041;-76
2023/11/18 06:30:00;;;;;;;1.63;1.48;;;;;;;;;;10029736;28;20088;-75
2023/11/18 06:34:53;;;;;;;1.10;1.00;;;;;;;;;;10029011;28;20077;-76
2023/11/18 06:39:47;;;;;;;1.10;1.10;;;;;;;;;;10027531;28;20100;-76
2023/11/18 06:44:39;;;;;;;1.75;1.65;;;;;;;;;;10021158;28;20491;-75
2023/11/18 06:49:34;;;;;;;1.45;1.10;;;;;;;;;;10028694;28;20049;-76
2023/11/18 06:54:28;;;;;;;0.88;0.82;;;;;;;;;;10021103;28;20381;-75
2023/11/18 06:59:19;;;;;;;3.45;1.20;;;;;;;;;;10028543;28;20381;-73
2023/11/18 07:04:11;;;;;;;4.18;2.08;;;;;;;;;;10024456;28;20041;-73
2023/11/18 07:09:12;;;;;;;4.70;3.05;;;;;;;;;;10028976;28;20137;-74
2023/11/18 07:14:04;;;;;;;4.43;2.38;;;;;;;;;;10027330;28;20158;-72
2023/11/18 07:18:56;;;;;;;2.70;2.25;;;;;;;;;;10019150;28;20065;-73
2023/11/18 07:23:48;;;;;;;5.93;2.78;;;;;;;;;;10013979;28;20537;-73
2023/11/18 07:28:41;;;;;;;2.72;2.15;;;;;;;;;;10013266;28;20076;-73
2023/11/18 07:33:33;;;;;;;4.70;3.25;;;;;;;;;;10020752;28;20108;-73
2023/11/18 07:38:27;;;;;;;2.13;1.90;;;;;;;;;;10057503;28;20045;-76
2023/11/18 07:43:21;;;;;;;1.73;1.63;;;;;;;;;;10050421;28;20520;-75
2023/11/18 07:48:16;;;;;;;1.95;1.85;;;;;;;;;;10060834;28;20433;-74
2023/11/18 07:53:09;;;;;;;6.35;1.98;;;;;;;;;;10021698;28;20420;-75
2023/11/18 07:58:01;;;;;;;4.22;2.35;;;;;;;;;;10012812;28;20037;-78
2023/11/18 08:02:54;;;;;;;4.03;3.10;;;;;;;;;;10016817;28;20046;-77
2023/11/18 08:07:46;;;;;;;3.60;2.42;;;;;;;;;;10013897;28;20076;-77
2023/11/18 08:12:40;;;;;;;4.40;3.15;;;;;;;;;;10009197;28;20058;-76
2023/11/18 08:17:32;;;;;;;2.75;2.40;;;;;;;;;;10083224;23;20069;-76
2023/11/18 08:22:24;;;;;;;5.10;3.85;;;;;;;;;;10166478;23;20084;-73
2023/11/18 08:27:16;;;;;;;1.55;1.45;;;;;;;;;;10100449;23;20434;-77
2023/11/18 08:32:11;;;;;;;1.67;1.50;;;;;;;;;;10050316;28;20079;-77
2023/11/18 08:37:06;;;;;;;2.67;1.00;;;;;;;;;;10055693;28;20050;-78
2023/11/18 08:41:58;;;;;;;1.17;1.08;;;;;;;;;;10052105;28;20042;-77
2023/11/18 08:46:52;;;;;;;0.70;0.70;;;;;;;;;;10054938;28;20072;-78
2023/11/18 08:51:46;;;;;;;0.80;0.80;;;;;;;;;;10056051;28;20107;-78
2023/11/18 08:56:40;;;;;;;1.20;1.10;;;;;;;;;;10046557;28;20140;-77
2023/11/18 09:01:34;;;;;;;1.33;1.10;;;;;;;;;;10058621;28;20471;-77
2023/11/18 09:06:27;;;;;;;1.20;1.10;;;;;;;;;;10058559;28;20053;-76
2023/11/18 09:11:27;;;;;;;1.40;1.05;;;;;;;;;;10055905;28;20057;-77
2023/11/18 09:16:22;;;;;;;1.80;1.17;;;;;;;;;;10051980;28;20543;-77
2023/11/18 09:21:14;;;;;;;0.75;0.75;;;;;;;;;;10055806;28;20374;-82
2023/11/18 09:26:08;;;;;;;1.30;1.20;;;;;;;;;;10057562;28;20526;-78
2023/11/18 09:31:02;;;;;;;9.07;5.53;;;;;;;;;;10062205;28;20127;-79
2023/11/18 09:35:58;;;;;;;1.98;1.80;;;;;;;;;;10062628;28;20052;-78
2023/11/18 09:40:52;;;;;;;2.95;1.52;;;;;;;;;;10064098;28;20045;-78
2023/11/18 09:45:47;;;;;;;2.60;1.77;;;;;;;;;;10063548;28;20115;-77
2023/11/18 09:50:43;;;;;;;2.38;2.00;;;;;;;;;;10062490;28;20041;-76
2023/11/18 09:55:41;;;;;;;1.92;1.45;;;;;;;;;;10065323;28;20059;-76
2023/11/18 10:00:33;;;;;;;1.13;1.03;;;;;;;;;;10062017;28;20522;-75
2023/11/18 10:05:26;;;;;;;0.90;0.90;;;;;;;;;;10065255;28;20300;-76
2023/11/18 10:10:24;;;;;;;0.68;0.68;;;;;;;;;;10066006;28;20045;-76
2023/11/18 10:15:17;;;;;;;0.70;0.70;;;;;;;;;;10063608;28;20468;-76
2023/11/18 10:20:12;;;;;;;1.73;0.75;;;;;;;;;;10064519;28;20045;-77
2023/11/18 10:25:06;;;;;;;3.15;0.77;;;;;;;;;;10061413;28;20116;-77
2023/11/18 10:30:02;;;;;;;1.00;0.80;;;;;;;;;;10064461;28;20496;-77
2023/11/18 10:34:57;;;;;;;0.70;0.70;;;;;;;;;;10063786;28;20430;-77
2023/11/18 10:39:52;;;;;;;0.80;0.75;;;;;;;;;;10054591;28;20045;-79
2023/11/18 10:45:12;;;;;;;0.73;0.73;;;;;;;;;;10060733;28;20048;-79
2023/11/18 10:50:05;;;;;;;0.70;0.70;;;;;;;;;;10059374;28;20051;-80
2023/11/18 10:54:57;;;;;;;0.68;0.68;;;;;;;;;;10060659;28;20049;-79
2023/11/18 10:59:59;;;;;;;2.53;0.90;;;;;;;;;;10060390;28;20050;-80
2023/11/18 11:04:52;;;;;;;3.85;0.80;;;;;;;;;;10059927;28;20056;-79
2023/11/18 11:09:45;;;;;;;3.15;1.67;;;;;;;;;;10059372;28;20045;-79
2023/11/18 11:14:44;;;;;;;0.60;0.60;;;;;;;;;;10055055;28;20172;-79
2023/11/18 11:19:55;;;;;;;20.27;13.43;;;;;;;;;;10056723;28;20049;-78
2023/11/18 11:25:22;;;;;;;2.55;1.95;;;;;;;;;;10057735;28;20045;-79
2023/11/18 11:30:22;;;;;;;3.72;3.03;;;;;;;;;;10057761;28;20047;-78
2023/11/18 11:35:18;;;;;;;;;;;;;;;;;;10059761;28;20613;-76
2023/11/18 11:40:12;;;;;;;0.80;0.80;;;;;;;;;;10056005;28;19925;-76
2023/11/18 11:45:12;;;;;;;1.63;1.40;;;;;;;;;;10056133;28;20050;-80
2023/11/18 11:50:21;;;;;;;3.67;2.47;;;;;;;;;;10056388;28;20056;-82
2023/11/18 11:55:23;;;;;;;26.45;18.15;;;;;;;;;;10052360;28;20046;-78
2023/11/18 12:00:16;;;;;;;1.95;1.80;;;;;;;;;;10056403;28;20136;-77
2023/11/18 12:05:08;;;;;;;2.08;1.90;;;;;;;;;;10057808;28;20137;-80
2023/11/18 12:10:05;;;;;;;3.80;3.20;;;;;;;;;;10055970;28;20057;-81
2023/11/18 12:15:11;;;;;;;3.55;1.83;;;;;;;;;;10056203;28;20041;-79
2023/11/18 12:20:47;;;;;;;1.63;1.50;;;;;;;;;;10057053;28;20049;-80
2023/11/18 12:25:40;;;;;;;3.08;1.25;;;;;;;;;;10056764;28;20104;-82
2023/11/18 12:30:37;;;;;;;3.40;1.90;;;;;;;;;;10055849;28;20045;-83
2023/11/18 12:35:29;;;;;;;1.23;1.13;;;;;;;;;;10057077;28;20049;-79
2023/11/18 12:40:44;;;;;;;2.83;1.92;;;;;;;;;;10056783;28;20037;-82
2023/11/18 12:45:43;;;;;;;3.22;2.30;;;;;;;;;;10054580;28;20111;-77
2023/11/18 12:50:35;;;;;;;2.67;1.98;;;;;;;;;;10057657;28;20128;-82
2023/11/18 12:55:31;;;;;;;2.53;0.93;;;;;;;;;;10059510;28;20049;-82
2023/11/18 13:00:27;;;;;;;1.75;1.60;;;;;;;;;;10053916;28;20044;-81
2023/11/18 13:05:20;;;;;;;6.57;4.63;;;;;;;;;;10055975;28;20408;-78
2023/11/18 13:10:15;;;;;;;9.57;5.63;;;;;;;;;;10051299;28;20139;-78
2023/11/18 13:15:08;;;;;;;2.80;2.08;;;;;;;;;;10051845;28;20048;-76
2023/11/18 13:20:13;;;;;;;2.53;2.15;;;;;;;;;;10053510;28;20103;-76
2023/11/18 13:25:05;;;;;;;11.25;6.10;;;;;;;;;;10061162;28;20076;-76
2023/11/18 13:29:57;;;;;;;1.42;0.90;;;;;;;;;;10064249;28;20077;-75
2023/11/18 13:34:50;;;;;;;1.65;1.17;;;;;;;;;;10063574;28;20451;-76
2023/11/18 13:39:46;;;;;;;7.70;5.25;;;;;;;;;;10063215;28;20072;-77
2023/11/18 13:44:39;;;;;;;4.50;3.25;;;;;;;;;;10063291;28;20129;-77
2023/11/18 13:49:34;;;;;;;1.33;1.20;;;;;;;;;;10061139;28;20049;-75
2023/11/18 13:54:29;;;;;;;5.18;2.47;;;;;;;;;;10060714;28;20042;-77
2023/11/18 13:59:26;;;;;;;4.57;2.92;;;;;;;;;;10054169;28;20045;-77
2023/11/18 14:04:18;;;;;;;2.75;1.38;;;;;;;;;;10053380;28;20041;-77
2023/11/18 14:09:11;;;;;;;2.28;1.48;;;;;;;;;;10057378;28;20049;-77
2023/11/18 14:14:03;;;;;;;3.85;2.63;;;;;;;;;;10059085;28;20045;-78
2023/11/18 14:18:55;;;;;;;3.03;2.30;;;;;;;;;;10057928;28;20132;-77
2023/11/18 14:23:47;;;;;;;4.03;2.50;;;;;;;;;;10055059;28;20099;-78
2023/11/18 14:28:39;;;;;;;5.97;1.75;;;;;;;;;;10051923;28;20060;-78
2023/11/18 14:33:33;;;;;;;3.97;3.00;;;;;;;;;;10053654;28;20168;-78
2023/11/18 14:38:25;;;;;;;1.80;1.48;;;;;;;;;;10059376;28;20033;-77
2023/11/18 14:43:18;;;;;;;3.63;2.42;;;;;;;;;;10057756;28;20673;-72
2023/11/18 14:48:10;;;;;;;3.55;2.30;;;;;;;;;;10058417;28;20049;-72
2023/11/18 14:53:02;;;;;;;26.00;22.00;;;;;;;;;;10054797;28;20419;-72
2023/11/18 14:57:57;;;;;;;17.30;14.60;;;;;;;;;;10058108;28;20038;-72
2023/11/18 15:02:50;;;;;;;10.05;5.72;;;;;;;;;;10053813;28;20041;-72
2023/11/18 15:07:52;;;;;;;5.18;3.90;;;;;;;;;;10055158;28;20077;-72
2023/11/18 15:12:48;;;;;;;4.90;3.45;;;;;;;;;;10052589;28;20045;-72
2023/11/18 15:17:40;;;;;;;11.07;7.43;;;;;;;;;;10048589;28;20164;-71
2023/11/18 15:22:38;;;;;;;51.75;33.45;;;;;;;;;;10055746;28;20144;-71
2023/11/18 15:27:32;;;;;;;9.73;7.32;;;;;;;;;;10053495;28;20104;-69
2023/11/18 15:32:26;;;;;;;12.82;8.88;;;;;;;;;;10055465;28;20095;-71
2023/11/18 15:37:18;;;;;;;36.67;23.55;;;;;;;;;;10057228;28;20368;-71
2023/11/18 15:42:11;;;;;;;5.28;3.22;;;;;;;;;;10035697;28;20115;-71
2023/11/18 15:47:03;;;;;;;5.45;3.72;;;;;;;;;;10060285;28;20049;-71
2023/11/18 15:51:55;;;;;;;1.95;1.77;;;;;;;;;;10058415;28;20068;-71
2023/11/18 15:56:47;;;;;;;9.52;5.57;;;;;;;;;;10065670;28;20103;-72
2023/11/18 16:01:38;;;;;;;7.78;4.80;;;;;;;;;;10066322;28;20045;-71
2023/11/18 16:06:30;;;;;;;7.90;6.13;;;;;;;;;;10066081;28;20041;-71
2023/11/18 16:11:22;;;;;;;10.50;8.38;;;;;;;;;;10062010;28;20403;-71
2023/11/18 16:16:14;;;;;;;2.70;2.50;;;;;;;;;;10063543;28;20041;-72
2023/11/18 16:21:06;;;;;;;5.93;5.03;;;;;;;;;;10048802;28;20498;-71
2023/11/18 16:25:59;;;;;;;2.97;2.60;;;;;;;;;;10063056;28;20132;-72
2023/11/18 16:30:52;;;;;;;3.83;2.95;;;;;;;;;;10064675;28;20053;-72
2023/11/18 16:35:44;;;;;;;27.02;21.92;;;;;;;;;;10063015;28;20086;-73
2023/11/18 16:40:36;;;;;;;9.68;8.68;;;;;;;;;;10071423;28;20049;-70
2023/11/18 16:45:28;;;;;;;4.05;3.58;;;;;;;;;;10075616;28;20111;-73
2023/11/18 16:50:22;;;;;;;7.15;6.45;;;;;;;;;;10059924;28;20476;-73
2023/11/18 16:55:15;;;;;;;3.03;2.72;;;;;;;;;;10068847;28;20130;-73
2023/11/18 17:00:15;;;;;;;4.93;2.42;;;;;;;;;;10072386;28;20039;-73
2023/11/18 17:05:08;;;;;;;76.03;54.53;;;;;;;;;;10056280;28;20338;-73
2023/11/18 17:10:00;;;;;;;34.30;19.30;;;;;;;;;;10062537;28;20111;-73
2023/11/18 17:14:52;;;;;;;22.58;16.20;;;;;;;;;;10044352;28;20132;-73
2023/11/18 17:19:44;;;;;;;25.65;17.80;;;;;;;;;;10058150;28;20056;-73
2023/11/18 17:24:39;;;;;;;15.75;10.93;;;;;;;;;;10055280;28;20065;-73
2023/11/18 17:29:31;;;;;;;8.25;4.18;;;;;;;;;;10063261;28;20048;-72
2023/11/18 17:34:23;;;;;;;4.93;3.88;;;;;;;;;;10063328;28;20052;-73
2023/11/18 17:39:17;;;;;;;5.32;4.47;;;;;;;;;;10063563;28;20037;-73
2023/11/18 17:44:10;;;;;;;11.70;7.55;;;;;;;;;;10060608;28;20038;-73
2023/11/18 17:49:04;;;;;;;29.17;19.50;;;;;;;;;;10059181;28;20591;-73
2023/11/18 17:53:56;;;;;;;24.40;13.90;;;;;;;;;;10066318;28;20420;-73
2023/11/18 17:58:48;;;;;;;14.88;9.05;;;;;;;;;;10066418;28;20053;-73
2023/11/18 18:03:42;;;;;;;8.48;4.15;;;;;;;;;;10069936;28;20077;-73
2023/11/18 18:08:35;;;;;;;11.50;8.45;;;;;;;;;;10069260;28;20042;-73
2023/11/18 18:13:27;;;;;;;6.68;4.78;;;;;;;;;;10069928;28;20460;-73
2023/11/18 18:18:19;;;;;;;4.03;2.58;;;;;;;;;;10069311;28;20037;-73
2023/11/18 18:23:10;;;;;;;4.53;2.30;;;;;;;;;;10069076;28;20075;-73
2023/11/18 18:28:03;;;;;;;3.53;3.00;;;;;;;;;;10061377;28;20054;-73
2023/11/18 18:32:55;;;;;;;2.65;2.20;;;;;;;;;;10063667;28;20045;-73
2023/11/18 18:37:47;;;;;;;3.90;3.50;;;;;;;;;;10043476;28;20050;-73
2023/11/18 18:42:40;;;;;;;18.90;16.90;;;;;;;;;;10031725;28;20038;-73
2023/11/18 18:47:32;;;;;;;11.30;7.57;;;;;;;;;;10062760;28;20033;-73
2023/11/18 18:52:24;;;;;;;7.80;6.05;;;;;;;;;;10063059;28;20049;-72
2023/11/18 18:57:17;;;;;;;10.95;9.85;;;;;;;;;;10051036;28;20042;-72
2023/11/18 19:02:09;;;;;;;59.70;47.88;;;;;;;;;;10062777;28;20037;-72
2023/11/18 19:07:02;;;;;;;3.05;2.70;;;;;;;;;;10067812;28;20492;-72
2023/11/18 19:11:54;;;;;;;8.05;7.20;;;;;;;;;;10060417;28;20103;-73
2023/11/18 19:16:46;;;;;;;6.20;5.15;;;;;;;;;;10066919;28;20530;-72
2023/11/18 19:21:37;;;;;;;3.17;2.67;;;;;;;;;;10066297;28;20053;-72
2023/11/18 19:26:29;;;;;;;2.00;1.90;;;;;;;;;;10057508;28;20049;-72
2023/11/18 19:31:21;;;;;;;87.03;59.88;;;;;;;;;;10066005;28;20045;-71
2023/11/18 19:36:13;;;;;;;32.42;23.90;;;;;;;;;;10052523;28;20389;-72
2023/11/18 19:41:06;;;;;;;5.45;4.95;;;;;;;;;;10065561;28;20474;-72
2023/11/18 19:45:58;;;;;;;6.90;2.58;;;;;;;;;;10063622;28;20073;-72
2023/11/18 19:50:50;;;;;;;3.72;3.35;;;;;;;;;;10054524;28;20037;-72
2023/11/18 19:55:42;;;;;;;12.60;7.93;;;;;;;;;;10062294;28;20045;-73
2023/11/18 20:00:35;;;;;;;6.35;5.47;;;;;;;;;;10058471;28;20073;-72
2023/11/18 20:05:28;;;;;;;4.80;3.92;;;;;;;;;;10059493;28;20041;-72
2023/11/18 20:10:21;;;;;;;4.60;4.13;;;;;;;;;;10050776;28;20061;-71
2023/11/18 20:15:13;;;;;;;3.63;3.33;;;;;;;;;;10055084;28;20045;-71
2023/11/18 20:20:08;;;;;;;5.53;3.85;;;;;;;;;;10063429;28;20113;-71
2023/11/18 20:25:01;;;;;;;9.43;4.45;;;;;;;;;;10063375;28;20050;-72
2023/11/18 20:29:53;;;;;;;4.93;4.20;;;;;;;;;;10058366;28;20045;-71
2023/11/18 20:34:45;;;;;;;4.20;3.20;;;;;;;;;;10063885;28;20046;-71
2023/11/18 20:39:37;;;;;;;3.90;3.50;;;;;;;;;;10062327;28;20037;-72
2023/11/18 20:44:29;;;;;;;5.00;4.07;;;;;;;;;;10061183;28;20092;-72
2023/11/18 20:49:29;;;;;;;6.50;4.70;;;;;;;;;;10053898;28;20380;-72
2023/11/18 20:54:21;;;;;;;10.02;6.15;;;;;;;;;;10047086;28;20057;-71
2023/11/18 20:59:14;;;;;;;10.63;7.00;;;;;;;;;;10063019;28;20045;-72
2023/11/18 21:04:06;;;;;;;9.35;6.18;;;;;;;;;;10048200;28;20062;-71
2023/11/18 21:08:59;;;;;;;4.88;4.28;;;;;;;;;;10036030;28;20480;-72
2023/11/18 21:13:51;;;;;;;4.38;3.80;;;;;;;;;;10041853;28;20037;-71
2023/11/18 21:18:43;;;;;;;3.47;3.03;;;;;;;;;;10064530;28;20080;-72
2023/11/18 21:23:34;;;;;;;9.50;3.25;;;;;;;;;;10065049;28;20083;-72
2023/11/18 21:28:27;;;;;;;3.05;2.75;;;;;;;;;;10061768;28;20457;-72
2023/11/18 21:33:21;;;;;;;6.35;3.10;;;;;;;;;;10062227;28;20041;-73
2023/11/18 21:38:13;;;;;;;4.35;3.38;;;;;;;;;;10065110;28;20069;-72
2023/11/18 21:43:05;;;;;;;2.95;2.33;;;;;;;;;;10047840;28;20049;-72
2023/11/18 21:48:00;;;;;;;2.60;2.25;;;;;;;;;;10071319;28;20042;-72
2023/11/18 21:52:55;;;;;;;5.38;4.68;;;;;;;;;;10067808;28;20115;-71
2023/11/18 21:57:47;;;;;;;5.70;3.65;;;;;;;;;;10053475;28;20107;-72
2023/11/18 22:02:40;;;;;;;4.25;3.33;;;;;;;;;;10067471;28;20065;-71
2023/11/18 22:07:32;;;;;;;4.97;3.25;;;;;;;;;;10061672;28;20526;-71
2023/11/18 22:12:25;;;;;;;3.58;2.83;;;;;;;;;;10065613;28;20124;-71
2023/11/18 22:17:17;;;;;;;3.33;2.40;;;;;;;;;;10061755;28;20049;-72
2023/11/18 22:22:09;;;;;;;5.15;3.45;;;;;;;;;;10054549;28;20040;-72
2023/11/18 22:27:01;;;;;;;3.88;2.78;;;;;;;;;;10065817;28;20057;-72
2023/11/18 22:31:53;;;;;;;3.47;2.80;;;;;;;;;;10068676;28;20041;-72
2023/11/18 22:36:48;;;;;;;6.47;2.78;;;;;;;;;;10064930;28;20054;-72
2023/11/18 22:41:40;;;;;;;5.30;3.30;;;;;;;;;;10060601;28;20071;-72
2023/11/18 22:46:35;;;;;;;6.07;3.58;;;;;;;;;;10054193;28;20041;-72
2023/11/18 22:51:27;;;;;;;4.15;3.22;;;;;;;;;;10052088;28;20481;-72
2023/11/18 22:56:19;;;;;;;10.38;6.70;;;;;;;;;;10050159;28;20038;-71
2023/11/18 23:01:11;;;;;;;14.80;10.80;;;;;;;;;;10051682;28;20046;-72
2023/11/18 23:06:07;;;;;;;5.30;3.83;;;;;;;;;;10065246;28;20045;-72
2023/11/18 23:11:01;;;;;;;5.47;3.50;;;;;;;;;;10062143;28;20140;-72
2023/11/18 23:15:56;;;;;;;3.42;2.45;;;;;;;;;;10060277;28;20140;-71
2023/11/18 23:20:48;;;;;;;3.95;2.28;;;;;;;;;;10063010;28;20033;-71
2023/11/18 23:25:40;;;;;;;6.82;5.32;;;;;;;;;;10061434;28;20046;-72
2023/11/18 23:30:32;;;;;;;5.13;2.38;;;;;;;;;;10061731;28;20046;-72
2023/11/18 23:35:23;;;;;;;2.90;2.60;;;;;;;;;;10074308;28;20531;-72
2023/11/18 23:40:15;;;;;;;4.20;3.10;;;;;;;;;;10062859;28;20121;-72
2023/11/18 23:45:08;;;;;;;3.53;2.22;;;;;;;;;;10072127;28;20045;-72
2023/11/18 23:50:01;;;;;;;2.15;1.80;;;;;;;;;;10066061;28;20128;-72
2023/11/18 23:54:53;;;;;;;2.80;2.45;;;;;;;;;;10071856;28;20125;-72
2023/11/18 23:59:45;;;;;;;2.55;2.35;;;;;;;;;;10067714;28;20049;-72
